ROA051 SVMG-SVMI
Flight info
| Callsign | ROA051 |
|---|---|
| Flight time | 0h 43m |
| Altitude | 24000 |
| Route | ESPEP SARNI A561 CBC NETSI1 |
| Aircraft | B737/M-SDE2E3FGHIRWXY/LB1 |
Departure
| Time | 2026-05-05 20:22 |
|---|---|
| Airport | Del Caribe Santiago Mariño International Airport (SVMG) |
Arrival
| Time | 2026-05-05 21:06 |
|---|---|
| Airport | Maiquetía Simón Bolívar International Airport (SVMI) |
| Time | Latitude | Longitude | Altitude | Speed | Heading |
|---|---|---|---|---|---|
| 2026-05-05 20:04 | 10.91576 | -63.96942 | 51 ft | 0 kts | 348° |
| 2026-05-05 20:06 | 10.91564 | -63.96939 | 54 ft | 3 kts | 348° |
| 2026-05-05 20:07 | 10.91544 | -63.96935 | 48 ft | 3 kts | 348° |
| 2026-05-05 20:07 | 10.91519 | -63.96929 | 51 ft | 3 kts | 342° |
| 2026-05-05 20:07 | 10.91509 | -63.96926 | 52 ft | 2 kts | 327° |
| 2026-05-05 20:07 | 10.91502 | -63.96920 | 49 ft | 1 kts | 290° |
| 2026-05-05 20:08 | 10.91501 | -63.96911 | 48 ft | 1 kts | 265° |
| 2026-05-05 20:08 | 10.91502 | -63.96903 | 50 ft | 1 kts | 258° |
| 2026-05-05 20:08 | 10.91503 | -63.96898 | 50 ft | 0 kts | 257° |
| 2026-05-05 20:13 | 10.91500 | -63.96908 | 49 ft | 3 kts | 257° |
| 2026-05-05 20:13 | 10.91491 | -63.96949 | 51 ft | 8 kts | 256° |
| 2026-05-05 20:13 | 10.91461 | -63.97002 | 53 ft | 9 kts | 214° |
| 2026-05-05 20:13 | 10.91399 | -63.97012 | 49 ft | 9 kts | 182° |
| 2026-05-05 20:14 | 10.91356 | -63.97052 | 50 ft | 10 kts | 252° |
| 2026-05-05 20:14 | 10.91339 | -63.97127 | 54 ft | 11 kts | 258° |
| 2026-05-05 20:14 | 10.91323 | -63.97205 | 54 ft | 11 kts | 259° |
| 2026-05-05 20:14 | 10.91308 | -63.97281 | 54 ft | 11 kts | 258° |
| 2026-05-05 20:15 | 10.91293 | -63.97355 | 51 ft | 11 kts | 257° |
| 2026-05-05 20:15 | 10.91278 | -63.97427 | 53 ft | 10 kts | 258° |
| 2026-05-05 20:15 | 10.91263 | -63.97497 | 54 ft | 10 kts | 258° |
| 2026-05-05 20:15 | 10.91249 | -63.97565 | 58 ft | 10 kts | 258° |
| 2026-05-05 20:16 | 10.91235 | -63.97630 | 58 ft | 9 kts | 257° |
| 2026-05-05 20:16 | 10.91222 | -63.97695 | 66 ft | 9 kts | 260° |
| 2026-05-05 20:16 | 10.91210 | -63.97757 | 63 ft | 9 kts | 258° |
| 2026-05-05 20:16 | 10.91198 | -63.97818 | 67 ft | 9 kts | 258° |
| 2026-05-05 20:17 | 10.91186 | -63.97877 | 70 ft | 8 kts | 258° |
| 2026-05-05 20:17 | 10.91175 | -63.97934 | 68 ft | 8 kts | 258° |
| 2026-05-05 20:17 | 10.91163 | -63.97990 | 68 ft | 8 kts | 257° |
| 2026-05-05 20:17 | 10.91151 | -63.98044 | 83 ft | 8 kts | 258° |
| 2026-05-05 20:18 | 10.91141 | -63.98096 | 85 ft | 7 kts | 259° |
| 2026-05-05 20:18 | 10.91114 | -63.98135 | 86 ft | 7 kts | 195° |
| 2026-05-05 20:18 | 10.91053 | -63.98126 | 81 ft | 12 kts | 162° |
| 2026-05-05 20:18 | 10.91036 | -63.98116 | 81 ft | 0 kts | 139° |
| 2026-05-05 20:20 | 10.91034 | -63.98114 | 80 ft | 2 kts | 139° |
| 2026-05-05 20:20 | 10.91010 | -63.98091 | 74 ft | 6 kts | 140° |
| 2026-05-05 20:20 | 10.90976 | -63.98066 | 68 ft | 4 kts | 112° |
| 2026-05-05 20:21 | 10.90977 | -63.98055 | 73 ft | 0 kts | 76° |
| 2026-05-05 20:21 | 10.90981 | -63.98039 | 76 ft | 8 kts | 78° |
| 2026-05-05 20:21 | 10.91032 | -63.97785 | 70 ft | 73 kts | 78° |
| 2026-05-05 20:21 | 10.91178 | -63.97060 | 64 ft | 133 kts | 78° |
| 2026-05-05 20:22 | 10.91395 | -63.96053 | 423 ft | 150 kts | 73° |
| 2026-05-05 20:22 | 10.91626 | -63.95018 | 1190 ft | 151 kts | 77° |
| 2026-05-05 20:22 | 10.91898 | -63.93933 | 1667 ft | 169 kts | 76° |
| 2026-05-05 20:22 | 10.92223 | -63.92714 | 2180 ft | 186 kts | 76° |
| 2026-05-05 20:23 | 10.92494 | -63.91366 | 2609 ft | 207 kts | 89° |
| 2026-05-05 20:23 | 10.92212 | -63.89883 | 3085 ft | 228 kts | 116° |
| 2026-05-05 20:23 | 10.91247 | -63.88633 | 4224 ft | 221 kts | 140° |
| 2026-05-05 20:23 | 10.89890 | -63.87867 | 5112 ft | 230 kts | 149° |
| 2026-05-05 20:24 | 10.88388 | -63.87107 | 5573 ft | 255 kts | 163° |
| 2026-05-05 20:24 | 10.86594 | -63.87173 | 6381 ft | 272 kts | 196° |
| 2026-05-05 20:24 | 10.85017 | -63.88298 | 7270 ft | 285 kts | 224° |
| 2026-05-05 20:24 | 10.83805 | -63.89937 | 8128 ft | 295 kts | 232° |
| 2026-05-05 20:25 | 10.82641 | -63.91684 | 9071 ft | 301 kts | 233° |
| 2026-05-05 20:25 | 10.81476 | -63.93482 | 10036 ft | 308 kts | 233° |
| 2026-05-05 20:25 | 10.80771 | -63.94580 | 10481 ft | 316 kts | 234° |
| 2026-05-05 20:25 | 10.79727 | -63.96205 | 10802 ft | 338 kts | 234° |
| 2026-05-05 20:26 | 10.78521 | -63.98084 | 11401 ft | 349 kts | 234° |
| 2026-05-05 20:26 | 10.77203 | -64.00183 | 12228 ft | 357 kts | 239° |
| 2026-05-05 20:26 | 10.76382 | -64.02589 | 13124 ft | 365 kts | 261° |
| 2026-05-05 20:26 | 10.76163 | -64.05172 | 14017 ft | 369 kts | 266° |
| 2026-05-05 20:27 | 10.76049 | -64.07793 | 14846 ft | 372 kts | 268° |
| 2026-05-05 20:27 | 10.75961 | -64.10430 | 15699 ft | 375 kts | 269° |
| 2026-05-05 20:27 | 10.75872 | -64.13047 | 16614 ft | 375 kts | 269° |
| 2026-05-05 20:27 | 10.75771 | -64.15708 | 17481 ft | 379 kts | 269° |
| 2026-05-05 20:28 | 10.75660 | -64.18392 | 18347 ft | 381 kts | 269° |
| 2026-05-05 20:28 | 10.75541 | -64.21086 | 19143 ft | 382 kts | 269° |
| 2026-05-05 20:28 | 10.75416 | -64.23791 | 19906 ft | 384 kts | 269° |
| 2026-05-05 20:28 | 10.75287 | -64.26512 | 20675 ft | 386 kts | 268° |
| 2026-05-05 20:29 | 10.75156 | -64.29248 | 21431 ft | 389 kts | 268° |
| 2026-05-05 20:29 | 10.75024 | -64.31999 | 22179 ft | 391 kts | 268° |
| 2026-05-05 20:29 | 10.74892 | -64.34730 | 22881 ft | 394 kts | 268° |
| 2026-05-05 20:29 | 10.74758 | -64.37521 | 23572 ft | 396 kts | 267° |
| 2026-05-05 20:30 | 10.74623 | -64.40318 | 23878 ft | 395 kts | 267° |
| 2026-05-05 20:30 | 10.74488 | -64.43121 | 23926 ft | 400 kts | 267° |
| 2026-05-05 20:30 | 10.74350 | -64.45974 | 23945 ft | 407 kts | 267° |
| 2026-05-05 20:30 | 10.74211 | -64.48841 | 23937 ft | 404 kts | 267° |
| 2026-05-05 20:31 | 10.74073 | -64.51678 | 23943 ft | 399 kts | 267° |
| 2026-05-05 20:31 | 10.73937 | -64.54487 | 23949 ft | 397 kts | 267° |
| 2026-05-05 20:31 | 10.73802 | -64.57248 | 23950 ft | 396 kts | 267° |
| 2026-05-05 20:31 | 10.73666 | -64.60043 | 23957 ft | 397 kts | 268° |
| 2026-05-05 20:32 | 10.73490 | -64.62850 | 23959 ft | 399 kts | 265° |
| 2026-05-05 20:32 | 10.73179 | -64.65668 | 23965 ft | 403 kts | 263° |
| 2026-05-05 20:32 | 10.72809 | -64.68488 | 23955 ft | 402 kts | 263° |
| 2026-05-05 20:32 | 10.72425 | -64.71309 | 23949 ft | 402 kts | 263° |
| 2026-05-05 20:33 | 10.72047 | -64.74125 | 23949 ft | 402 kts | 263° |
| 2026-05-05 20:33 | 10.71679 | -64.76937 | 23951 ft | 401 kts | 263° |
| 2026-05-05 20:33 | 10.71323 | -64.79714 | 23951 ft | 401 kts | 263° |
| 2026-05-05 20:33 | 10.70968 | -64.82525 | 23949 ft | 401 kts | 263° |
| 2026-05-05 20:34 | 10.70616 | -64.85336 | 23949 ft | 401 kts | 263° |
| 2026-05-05 20:34 | 10.70266 | -64.88143 | 23952 ft | 401 kts | 263° |
| 2026-05-05 20:34 | 10.69915 | -64.90952 | 23952 ft | 400 kts | 263° |
| 2026-05-05 20:34 | 10.69564 | -64.93758 | 23950 ft | 400 kts | 263° |
| 2026-05-05 20:35 | 10.69213 | -64.96566 | 23950 ft | 400 kts | 263° |
| 2026-05-05 20:35 | 10.68861 | -64.99375 | 23950 ft | 400 kts | 263° |
| 2026-05-05 20:35 | 10.68514 | -65.02137 | 23950 ft | 400 kts | 263° |
| 2026-05-05 20:35 | 10.68161 | -65.04953 | 23949 ft | 401 kts | 263° |
| 2026-05-05 20:36 | 10.67808 | -65.07762 | 23948 ft | 400 kts | 263° |
| 2026-05-05 20:36 | 10.67455 | -65.10571 | 23950 ft | 400 kts | 263° |
| 2026-05-05 20:36 | 10.67103 | -65.13372 | 23946 ft | 401 kts | 264° |
| 2026-05-05 20:36 | 10.66779 | -65.16190 | 23951 ft | 400 kts | 264° |
| 2026-05-05 20:37 | 10.66483 | -65.19003 | 23950 ft | 401 kts | 265° |
| 2026-05-05 20:37 | 10.66195 | -65.21819 | 23951 ft | 401 kts | 265° |
| 2026-05-05 20:37 | 10.65913 | -65.24599 | 23950 ft | 401 kts | 265° |
| 2026-05-05 20:37 | 10.65624 | -65.27416 | 23949 ft | 401 kts | 265° |
| 2026-05-05 20:38 | 10.65333 | -65.30231 | 23947 ft | 401 kts | 265° |
| 2026-05-05 20:38 | 10.65040 | -65.33048 | 23949 ft | 400 kts | 265° |
| 2026-05-05 20:38 | 10.64745 | -65.35860 | 23946 ft | 400 kts | 265° |
| 2026-05-05 20:38 | 10.64450 | -65.38676 | 23943 ft | 400 kts | 265° |
| 2026-05-05 20:39 | 10.64154 | -65.41486 | 23946 ft | 401 kts | 265° |
| 2026-05-05 20:39 | 10.63858 | -65.44298 | 23944 ft | 401 kts | 265° |
| 2026-05-05 20:39 | 10.63559 | -65.47120 | 23947 ft | 401 kts | 265° |
| 2026-05-05 20:39 | 10.63262 | -65.49935 | 23946 ft | 401 kts | 265° |
| 2026-05-05 20:40 | 10.62968 | -65.52716 | 23943 ft | 401 kts | 265° |
| 2026-05-05 20:40 | 10.62671 | -65.55528 | 23946 ft | 401 kts | 265° |
| 2026-05-05 20:40 | 10.62372 | -65.58345 | 23943 ft | 401 kts | 265° |
| 2026-05-05 20:40 | 10.62074 | -65.61163 | 23945 ft | 401 kts | 265° |
| 2026-05-05 20:41 | 10.61775 | -65.63982 | 23945 ft | 401 kts | 265° |
| 2026-05-05 20:41 | 10.61476 | -65.66802 | 23944 ft | 401 kts | 265° |
| 2026-05-05 20:41 | 10.61178 | -65.69620 | 23948 ft | 401 kts | 265° |
| 2026-05-05 20:41 | 10.60878 | -65.72439 | 23942 ft | 401 kts | 265° |
| 2026-05-05 20:42 | 10.60582 | -65.75218 | 23942 ft | 401 kts | 265° |
| 2026-05-05 20:42 | 10.60282 | -65.78036 | 23943 ft | 401 kts | 265° |
| 2026-05-05 20:42 | 10.59982 | -65.80854 | 23943 ft | 401 kts | 265° |
| 2026-05-05 20:42 | 10.59683 | -65.83668 | 23944 ft | 401 kts | 265° |
| 2026-05-05 20:43 | 10.59382 | -65.86487 | 23947 ft | 401 kts | 265° |
| 2026-05-05 20:43 | 10.59080 | -65.89303 | 23945 ft | 401 kts | 265° |
| 2026-05-05 20:43 | 10.58780 | -65.92122 | 23946 ft | 401 kts | 265° |
| 2026-05-05 20:43 | 10.58479 | -65.94941 | 23945 ft | 401 kts | 265° |
| 2026-05-05 20:44 | 10.58182 | -65.97722 | 23947 ft | 402 kts | 265° |
| 2026-05-05 20:44 | 10.57878 | -66.00546 | 23946 ft | 402 kts | 265° |
| 2026-05-05 20:44 | 10.57732 | -66.03373 | 23927 ft | 400 kts | 277° |
| 2026-05-05 20:44 | 10.58371 | -66.06098 | 23951 ft | 397 kts | 293° |
| 2026-05-05 20:45 | 10.61354 | -66.10780 | 23951 ft | 395 kts | 307° |
| 2026-05-05 20:45 | 10.63002 | -66.13017 | 23951 ft | 395 kts | 308° |
| 2026-05-05 20:45 | 10.64646 | -66.15261 | 23944 ft | 396 kts | 307° |
| 2026-05-05 20:46 | 10.66272 | -66.17515 | 23946 ft | 396 kts | 307° |
| 2026-05-05 20:46 | 10.67864 | -66.19748 | 23943 ft | 396 kts | 307° |
| 2026-05-05 20:46 | 10.69472 | -66.22017 | 23950 ft | 396 kts | 307° |
| 2026-05-05 20:46 | 10.71080 | -66.24289 | 23950 ft | 396 kts | 307° |
| 2026-05-05 20:47 | 10.72687 | -66.26553 | 23948 ft | 394 kts | 307° |
| 2026-05-05 20:47 | 10.74287 | -66.28801 | 23943 ft | 390 kts | 307° |
| 2026-05-05 20:47 | 10.75873 | -66.31028 | 23944 ft | 389 kts | 307° |
| 2026-05-05 20:47 | 10.77461 | -66.33260 | 23656 ft | 391 kts | 307° |
| 2026-05-05 20:48 | 10.79051 | -66.35493 | 23135 ft | 390 kts | 307° |
| 2026-05-05 20:48 | 10.80440 | -66.37852 | 22502 ft | 389 kts | 293° |
| 2026-05-05 20:48 | 10.81089 | -66.40470 | 21837 ft | 390 kts | 278° |
| 2026-05-05 20:48 | 10.80966 | -66.43239 | 21142 ft | 393 kts | 264° |
| 2026-05-05 20:49 | 10.80522 | -66.45979 | 20466 ft | 392 kts | 262° |
| 2026-05-05 20:49 | 10.80020 | -66.48696 | 19856 ft | 390 kts | 261° |
| 2026-05-05 20:49 | 10.79511 | -66.51405 | 19244 ft | 389 kts | 261° |
| 2026-05-05 20:49 | 10.79012 | -66.54100 | 18633 ft | 388 kts | 261° |
| 2026-05-05 20:50 | 10.78526 | -66.56797 | 17989 ft | 387 kts | 261° |
| 2026-05-05 20:50 | 10.78050 | -66.59488 | 17324 ft | 386 kts | 261° |
| 2026-05-05 20:50 | 10.77583 | -66.62160 | 16717 ft | 383 kts | 260° |
| 2026-05-05 20:50 | 10.77128 | -66.64786 | 16104 ft | 381 kts | 260° |
| 2026-05-05 20:51 | 10.76670 | -66.67431 | 15485 ft | 379 kts | 260° |
| 2026-05-05 20:51 | 10.76214 | -66.70065 | 14877 ft | 377 kts | 259° |
| 2026-05-05 20:51 | 10.75760 | -66.72690 | 14269 ft | 376 kts | 259° |
| 2026-05-05 20:51 | 10.75307 | -66.75301 | 13649 ft | 375 kts | 259° |
| 2026-05-05 20:52 | 10.74855 | -66.77909 | 12976 ft | 373 kts | 259° |
| 2026-05-05 20:52 | 10.74406 | -66.80496 | 12356 ft | 370 kts | 258° |
| 2026-05-05 20:52 | 10.73960 | -66.83066 | 11735 ft | 368 kts | 258° |
| 2026-05-05 20:52 | 10.73523 | -66.85583 | 11136 ft | 365 kts | 258° |
| 2026-05-05 20:53 | 10.73083 | -66.88112 | 10521 ft | 362 kts | 258° |
| 2026-05-05 20:53 | 10.72685 | -66.90600 | 10284 ft | 349 kts | 262° |
| 2026-05-05 20:53 | 10.72572 | -66.93021 | 10082 ft | 337 kts | 268° |
| 2026-05-05 20:53 | 10.72595 | -66.95359 | 9871 ft | 325 kts | 270° |
| 2026-05-05 20:54 | 10.72641 | -66.97591 | 9882 ft | 307 kts | 269° |
| 2026-05-05 20:54 | 10.72677 | -66.99758 | 9436 ft | 306 kts | 269° |
| 2026-05-05 20:54 | 10.72698 | -67.01896 | 9169 ft | 299 kts | 268° |
| 2026-05-05 20:54 | 10.72708 | -67.03961 | 8822 ft | 295 kts | 268° |
| 2026-05-05 20:55 | 10.72712 | -67.06053 | 8432 ft | 294 kts | 268° |
| 2026-05-05 20:55 | 10.72712 | -67.08118 | 8143 ft | 289 kts | 268° |
| 2026-05-05 20:55 | 10.72710 | -67.10152 | 7741 ft | 289 kts | 267° |
| 2026-05-05 20:55 | 10.72706 | -67.12200 | 7387 ft | 288 kts | 267° |
| 2026-05-05 20:56 | 10.72701 | -67.14206 | 7099 ft | 283 kts | 267° |
| 2026-05-05 20:56 | 10.72697 | -67.16202 | 6778 ft | 280 kts | 267° |
| 2026-05-05 20:56 | 10.72694 | -67.18173 | 6457 ft | 278 kts | 266° |
| 2026-05-05 20:56 | 10.72689 | -67.20124 | 6146 ft | 274 kts | 267° |
| 2026-05-05 20:57 | 10.72486 | -67.22035 | 5715 ft | 271 kts | 247° |
| 2026-05-05 20:57 | 10.71507 | -67.23570 | 5312 ft | 259 kts | 223° |
| 2026-05-05 20:57 | 10.69994 | -67.24522 | 4636 ft | 258 kts | 194° |
| 2026-05-05 20:57 | 10.68227 | -67.24843 | 4018 ft | 259 kts | 185° |
| 2026-05-05 20:58 | 10.66479 | -67.25046 | 3815 ft | 242 kts | 184° |
| 2026-05-05 20:58 | 10.64877 | -67.25221 | 3647 ft | 221 kts | 184° |
| 2026-05-05 20:58 | 10.63432 | -67.25069 | 3466 ft | 200 kts | 153° |
| 2026-05-05 20:58 | 10.62443 | -67.24231 | 3315 ft | 178 kts | 127° |
| 2026-05-05 20:59 | 10.61717 | -67.23273 | 3116 ft | 166 kts | 125° |
| 2026-05-05 20:59 | 10.61074 | -67.22372 | 2889 ft | 154 kts | 116° |
| 2026-05-05 20:59 | 10.60743 | -67.21355 | 2565 ft | 146 kts | 104° |
| 2026-05-05 20:59 | 10.60493 | -67.20444 | 2378 ft | 128 kts | 103° |
| 2026-05-05 21:00 | 10.60227 | -67.19564 | 1933 ft | 134 kts | 103° |
| 2026-05-05 21:00 | 10.59949 | -67.18676 | 1593 ft | 127 kts | 103° |
| 2026-05-05 21:00 | 10.59681 | -67.17796 | 1479 ft | 130 kts | 102° |
| 2026-05-05 21:00 | 10.59593 | -67.16924 | 1446 ft | 118 kts | 87° |
| 2026-05-05 21:01 | 10.59575 | -67.16077 | 1419 ft | 120 kts | 88° |
| 2026-05-05 21:01 | 10.59546 | -67.15212 | 1414 ft | 124 kts | 90° |
| 2026-05-05 21:01 | 10.59529 | -67.14332 | 1415 ft | 124 kts | 89° |
| 2026-05-05 21:01 | 10.59521 | -67.13803 | 1411 ft | 125 kts | 88° |
| 2026-05-05 21:02 | 10.59541 | -67.12916 | 1408 ft | 126 kts | 85° |
| 2026-05-05 21:02 | 10.59596 | -67.12030 | 1423 ft | 126 kts | 85° |
| 2026-05-05 21:02 | 10.59654 | -67.11149 | 1388 ft | 123 kts | 85° |
| 2026-05-05 21:02 | 10.59727 | -67.10297 | 1417 ft | 124 kts | 84° |
| 2026-05-05 21:03 | 10.59794 | -67.09382 | 1429 ft | 131 kts | 85° |
| 2026-05-05 21:03 | 10.59863 | -67.08502 | 1420 ft | 122 kts | 84° |
| 2026-05-05 21:03 | 10.59918 | -67.07639 | 1397 ft | 122 kts | 84° |
| 2026-05-05 21:03 | 10.59946 | -67.06797 | 1399 ft | 121 kts | 86° |
| 2026-05-05 21:04 | 10.60003 | -67.05905 | 1164 ft | 132 kts | 86° |
| 2026-05-05 21:04 | 10.60035 | -67.04995 | 1005 ft | 128 kts | 86° |
| 2026-05-05 21:04 | 10.60109 | -67.04096 | 780 ft | 126 kts | 83° |
| 2026-05-05 21:04 | 10.60204 | -67.03232 | 660 ft | 123 kts | 87° |
| 2026-05-05 21:05 | 10.60208 | -67.02349 | 573 ft | 127 kts | 90° |
| 2026-05-05 21:05 | 10.60218 | -67.01471 | 347 ft | 129 kts | 90° |
| 2026-05-05 21:05 | 10.60234 | -67.00597 | 223 ft | 116 kts | 90° |
| 2026-05-05 21:05 | 10.60253 | -66.99950 | 217 ft | 60 kts | 89° |
| 2026-05-05 21:06 | 10.60260 | -66.99693 | 207 ft | 14 kts | 105° |
| 2026-05-05 21:06 | 10.60191 | -66.99666 | 212 ft | 0 kts | 188° |
| 2026-05-05 21:07 | 10.60190 | -66.99666 | 211 ft | 1 kts | 188° |
| 2026-05-05 21:07 | 10.60179 | -66.99668 | 212 ft | 2 kts | 191° |
| 2026-05-05 21:07 | 10.60163 | -66.99679 | 216 ft | 3 kts | 220° |
| 2026-05-05 21:08 | 10.60149 | -66.99694 | 209 ft | 3 kts | 238° |
| 2026-05-05 21:08 | 10.60143 | -66.99714 | 211 ft | 3 kts | 253° |
| 2026-05-05 21:08 | 10.60136 | -66.99736 | 220 ft | 3 kts | 253° |
| 2026-05-05 21:08 | 10.60129 | -66.99760 | 215 ft | 4 kts | 252° |
| 2026-05-05 21:09 | 10.60126 | -66.99786 | 214 ft | 4 kts | 274° |
| 2026-05-05 21:09 | 10.60131 | -66.99822 | 215 ft | 6 kts | 278° |
| 2026-05-05 21:09 | 10.60133 | -66.99871 | 220 ft | 8 kts | 261° |
| 2026-05-05 21:09 | 10.60091 | -66.99908 | 221 ft | 9 kts | 194° |
| 2026-05-05 21:10 | 10.60017 | -66.99909 | 220 ft | 12 kts | 183° |
| 2026-05-05 21:10 | 10.59928 | -66.99920 | 222 ft | 14 kts | 198° |
| 2026-05-05 21:10 | 10.59841 | -66.99928 | 219 ft | 8 kts | 179° |
| 2026-05-05 21:10 | 10.59834 | -66.99928 | 219 ft | 0 kts | 179° |